createdAt,value
2017-12-16T09:27:16.578Z,27
2017-12-16T09:27:33.230Z,27
2017-12-16T09:28:35.661Z,28
2017-12-16T09:29:38.609Z,29
2017-12-16T09:30:41.023Z,31
2017-12-16T09:31:43.420Z,28
2017-12-16T09:32:46.113Z,28
2017-12-16T09:33:48.521Z,28
2017-12-16T09:34:50.934Z,29
2017-12-16T09:35:53.343Z,28
2017-12-16T09:36:56.352Z,30
2017-12-16T09:37:58.756Z,32
2017-12-16T09:39:01.175Z,36
2017-12-16T09:40:03.582Z,41
2017-12-16T09:41:06.266Z,42
2017-12-16T09:42:08.680Z,43
2017-12-16T09:43:11.076Z,44
2017-12-16T09:44:13.494Z,47
2017-12-16T09:45:16.189Z,44
2017-12-16T09:46:18.606Z,43
2017-12-16T09:47:21.015Z,39
2017-12-16T09:48:23.429Z,37
2017-12-16T09:49:25.842Z,35
2017-12-16T09:50:28.278Z,32
2017-12-16T09:51:30.684Z,29
2017-12-16T09:52:33.372Z,28
2017-12-16T09:53:35.790Z,29
2017-12-16T09:54:38.494Z,28
2017-12-16T09:55:41.240Z,25
2017-12-16T09:56:43.612Z,25
2017-12-16T09:57:46.015Z,25
2017-12-16T09:58:48.438Z,27
2017-12-16T09:59:50.846Z,32
2017-12-16T10:00:53.255Z,36
2017-12-16T10:01:55.677Z,38
2017-12-16T10:02:58.077Z,35
2017-12-16T10:04:00.493Z,32
2017-12-16T10:05:05.463Z,38
2017-12-16T10:06:08.152Z,38
2017-12-16T10:07:10.570Z,40
2017-12-16T10:08:12.981Z,38
2017-12-16T10:09:15.391Z,37
2017-12-16T10:10:18.094Z,32
2017-12-16T10:11:20.504Z,31
2017-12-16T10:12:22.920Z,30
2017-12-16T10:13:25.338Z,32
2017-12-16T10:14:28.013Z,43
2017-12-16T10:15:30.719Z,58
2017-12-16T10:16:33.139Z,50
2017-12-16T10:17:35.550Z,49
2017-12-16T10:18:38.245Z,38
2017-12-16T10:19:40.664Z,45
2017-12-16T10:20:43.072Z,50
2017-12-16T10:21:45.496Z,48
2017-12-16T10:22:47.906Z,39
2017-12-16T10:23:50.305Z,43
2017-12-16T10:24:52.721Z,36
2017-12-16T10:25:55.136Z,38
2017-12-16T10:26:57.553Z,40
2017-12-16T10:27:59.967Z,44
2017-12-16T10:29:02.674Z,55
2017-12-16T10:30:05.086Z,62
2017-12-16T10:31:10.208Z,57
2017-12-16T10:32:13.855Z,65
2017-12-16T10:33:16.274Z,60
2017-12-16T10:34:18.685Z,60
2017-12-16T10:35:21.316Z,70
2017-12-16T10:36:24.589Z,87
2017-12-16T10:37:27.081Z,88
2017-12-16T10:38:29.511Z,56
2017-12-16T10:39:31.915Z,75
2017-12-16T10:40:34.319Z,153
2017-12-16T10:41:36.732Z,191
2017-12-16T10:42:39.147Z,159
2017-12-16T10:43:41.553Z,119
2017-12-16T10:44:43.971Z,81
2017-12-16T10:45:46.387Z,73
2017-12-16T10:46:48.790Z,59
2017-12-16T10:47:51.209Z,65
2017-12-16T10:48:53.608Z,84
2017-12-16T10:49:56.031Z,167
2017-12-16T10:50:58.442Z,93
2017-12-16T10:52:00.858Z,87
2017-12-16T10:53:03.266Z,94
2017-12-16T10:54:05.683Z,110
2017-12-16T10:55:08.096Z,111
2017-12-16T10:56:11.067Z,119
2017-12-16T10:57:13.479Z,95
2017-12-16T10:58:15.888Z,55
2017-12-16T10:59:18.298Z,38
2017-12-16T11:00:20.999Z,32
2017-12-16T11:01:23.418Z,29
2017-12-16T11:02:26.118Z,32
2017-12-16T11:03:28.541Z,32
2017-12-16T11:04:30.945Z,33
2017-12-16T11:05:33.362Z,38
2017-12-16T11:06:35.768Z,37
2017-12-16T11:07:38.179Z,45
2017-12-16T11:08:40.584Z,57
2017-12-16T11:09:43.001Z,54
2017-12-16T11:10:45.407Z,55
2017-12-16T11:11:47.829Z,71
2017-12-16T11:12:50.242Z,62
2017-12-16T11:13:52.641Z,68
2017-12-16T11:14:55.067Z,83
2017-12-16T11:15:58.040Z,73
2017-12-16T11:17:00.460Z,60
2017-12-16T11:18:03.147Z,58
2017-12-16T11:19:05.565Z,64
2017-12-16T11:20:07.979Z,64
2017-12-16T11:21:10.691Z,63
2017-12-16T11:22:13.099Z,70
2017-12-16T11:23:15.786Z,67
2017-12-16T11:24:18.197Z,61
2017-12-16T11:25:20.604Z,45
2017-12-16T11:26:23.410Z,48
2017-12-16T11:27:25.750Z,49
2017-12-16T11:28:28.170Z,48
2017-12-16T11:29:30.583Z,52
2017-12-16T11:30:32.987Z,55
2017-12-16T11:31:35.403Z,53
2017-12-16T11:32:37.824Z,46
2017-12-16T11:33:40.233Z,41
2017-12-16T11:34:42.652Z,46
2017-12-16T11:35:45.067Z,49
2017-12-16T11:36:47.474Z,43
2017-12-16T11:37:49.904Z,53
2017-12-16T11:38:52.306Z,50
2017-12-16T11:39:54.725Z,51
2017-12-16T11:40:57.134Z,55
2017-12-16T11:41:59.843Z,60
2017-12-16T11:43:02.319Z,56
2017-12-16T11:44:04.675Z,55
2017-12-16T11:45:07.080Z,52
2017-12-16T11:46:09.498Z,55
2017-12-16T11:47:12.199Z,53
2017-12-16T11:48:14.609Z,53
2017-12-16T11:49:17.026Z,54
2017-12-16T11:50:19.742Z,54
2017-12-16T11:51:22.155Z,49
2017-12-16T11:52:24.566Z,47
2017-12-16T11:53:26.974Z,44
2017-12-16T11:54:29.677Z,40
2017-12-16T11:55:32.075Z,39
2017-12-16T11:56:34.497Z,43
2017-12-16T11:57:36.910Z,55
2017-12-16T11:58:39.646Z,54
2017-12-16T11:59:42.067Z,40
2017-12-16T12:00:44.487Z,43
2017-12-16T12:01:46.895Z,43
2017-12-16T12:02:49.308Z,50
2017-12-16T12:03:51.705Z,46
2017-12-16T12:04:54.124Z,80
2017-12-16T12:05:56.533Z,101
2017-12-16T12:06:58.952Z,160
2017-12-16T12:08:01.358Z,162
2017-12-16T12:09:04.055Z,100
2017-12-16T12:10:06.752Z,56
2017-12-16T12:11:09.180Z,142
2017-12-16T12:12:11.876Z,79
2017-12-16T12:13:14.295Z,148
2017-12-16T12:14:16.704Z,117
2017-12-16T12:15:19.124Z,52
2017-12-16T12:16:21.875Z,44
2017-12-16T12:17:24.242Z,42
2017-12-16T12:18:26.644Z,39
2017-12-16T12:19:29.061Z,45
2017-12-16T12:20:31.475Z,53
2017-12-16T12:21:33.888Z,55
2017-12-16T12:22:36.297Z,50
2017-12-16T12:23:38.710Z,48
2017-12-16T12:24:41.118Z,41
2017-12-16T12:25:43.529Z,43
2017-12-16T12:26:45.949Z,41
2017-12-16T12:27:48.357Z,37
2017-12-16T12:28:50.782Z,41
2017-12-16T12:29:53.184Z,42
2017-12-16T12:30:55.895Z,38
2017-12-16T12:31:58.300Z,43
2017-12-16T12:33:00.710Z,45
2017-12-16T12:34:03.127Z,39
2017-12-16T12:35:05.538Z,33
2017-12-16T12:36:07.942Z,32
2017-12-16T12:37:10.372Z,32
2017-12-16T12:38:12.782Z,37
2017-12-16T12:39:15.483Z,42
2017-12-16T12:40:17.901Z,36
2017-12-16T12:41:20.316Z,34
2017-12-16T12:42:22.734Z,39
2017-12-16T12:43:25.151Z,40
2017-12-16T12:44:27.553Z,39
2017-12-16T12:45:30.284Z,41
2017-12-16T12:46:32.690Z,42
2017-12-16T12:47:35.098Z,44
2017-12-16T12:48:37.518Z,49
2017-12-16T12:49:40.213Z,59
2017-12-16T12:50:42.624Z,52
2017-12-16T12:51:45.040Z,43
2017-12-16T12:52:47.454Z,42
2017-12-16T12:53:49.864Z,48
2017-12-16T12:54:52.278Z,45
2017-12-16T12:55:54.988Z,50
2017-12-16T12:56:57.397Z,49
2017-12-16T12:57:59.809Z,49
2017-12-16T12:59:02.226Z,47
2017-12-16T13:00:04.643Z,39
2017-12-16T13:01:07.050Z,30
2017-12-16T13:02:09.467Z,30
2017-12-16T13:03:12.170Z,33
2017-12-16T13:04:14.594Z,32
2017-12-16T13:05:17.005Z,28
2017-12-16T13:06:19.424Z,29
2017-12-16T13:07:21.831Z,26
2017-12-16T13:08:24.247Z,28
2017-12-16T13:09:26.650Z,26
2017-12-16T13:10:29.072Z,27
2017-12-16T13:11:31.487Z,29
2017-12-16T13:12:33.901Z,26
2017-12-16T13:13:36.597Z,23
2017-12-16T13:14:39.016Z,23
2017-12-16T13:15:41.414Z,21
2017-12-16T13:16:43.840Z,20
2017-12-16T13:17:46.259Z,21
2017-12-16T13:18:48.666Z,22
2017-12-16T13:19:51.084Z,21
2017-12-16T13:20:53.499Z,21
2017-12-16T13:21:55.906Z,22
2017-12-16T13:22:58.632Z,22
2017-12-16T13:24:01.039Z,22
2017-12-16T13:25:03.455Z,21
2017-12-16T13:26:05.865Z,20
2017-12-16T13:27:08.265Z,19
2017-12-16T13:28:10.688Z,18
2017-12-16T13:29:13.371Z,20
2017-12-16T13:30:15.795Z,18
2017-12-16T13:31:18.202Z,18
2017-12-16T13:32:20.612Z,18
2017-12-16T13:33:23.024Z,19
2017-12-16T13:34:25.440Z,23
2017-12-16T13:35:28.147Z,25
2017-12-16T13:36:30.554Z,25
2017-12-16T13:37:33.243Z,24
2017-12-16T13:38:35.650Z,25
2017-12-16T13:39:38.073Z,25
2017-12-16T13:40:40.489Z,26
2017-12-16T13:41:43.252Z,26
2017-12-16T13:42:45.596Z,26
2017-12-16T13:43:48.285Z,24
2017-12-16T13:44:50.691Z,22
2017-12-16T13:45:53.099Z,21
2017-12-16T13:46:55.790Z,21
2017-12-16T13:47:58.199Z,19
2017-12-16T13:49:00.631Z,15
2017-12-16T13:50:03.032Z,14
2017-12-16T13:51:05.437Z,13
2017-12-16T13:52:07.861Z,14
2017-12-16T13:53:10.273Z,14
2017-12-16T13:54:12.686Z,15
2017-12-16T13:55:15.101Z,14
2017-12-16T13:56:17.511Z,14
2017-12-16T13:57:19.931Z,15
2017-12-16T13:58:22.345Z,16
2017-12-16T13:59:24.760Z,16
2017-12-16T14:00:27.175Z,15
2017-12-16T14:01:29.591Z,15
2017-12-16T14:02:32.011Z,14
2017-12-16T14:03:34.418Z,14
2017-12-16T14:04:36.837Z,12
2017-12-16T14:05:39.236Z,10
2017-12-16T14:06:41.647Z,9
2017-12-16T14:07:44.065Z,8
2017-12-16T14:08:46.472Z,8
2017-12-16T14:09:48.876Z,8
2017-12-16T14:10:51.598Z,8
2017-12-16T14:11:54.036Z,9
2017-12-16T14:12:56.440Z,9
2017-12-16T14:13:58.860Z,9
2017-12-16T14:15:01.276Z,9
2017-12-16T14:16:03.692Z,8
2017-12-16T14:17:06.104Z,8
2017-12-16T14:18:08.523Z,7
2017-12-16T14:19:10.935Z,8
2017-12-16T14:20:13.631Z,8
2017-12-16T14:21:16.054Z,9
2017-12-16T14:22:18.469Z,9
2017-12-16T14:23:20.877Z,9
2017-12-16T14:24:23.298Z,8
2017-12-16T14:25:25.996Z,7
2017-12-16T14:26:28.396Z,7
2017-12-16T14:27:30.815Z,6
2017-12-16T14:28:33.228Z,6
2017-12-16T14:29:35.932Z,5
2017-12-16T14:30:38.340Z,5
2017-12-16T14:31:40.762Z,5
2017-12-16T14:32:43.454Z,4
2017-12-16T14:33:45.884Z,4
2017-12-16T14:34:48.292Z,4
2017-12-16T14:35:51.271Z,5
2017-12-16T14:36:53.694Z,5
2017-12-16T14:37:56.102Z,5
2017-12-16T14:38:58.512Z,5
2017-12-16T14:40:00.939Z,5
2017-12-16T14:41:03.338Z,5
2017-12-16T14:42:06.034Z,4
2017-12-16T14:43:08.453Z,4
2017-12-16T14:44:10.902Z,4
2017-12-16T14:45:13.310Z,3
2017-12-16T14:46:16.019Z,3
2017-12-16T14:47:18.430Z,3
2017-12-16T14:48:20.858Z,3
2017-12-16T14:49:23.560Z,3
2017-12-16T14:50:25.965Z,3
2017-12-16T14:51:28.380Z,2
2017-12-16T14:52:30.793Z,2
2017-12-16T14:53:33.496Z,2
2017-12-16T14:54:35.912Z,2
2017-12-16T14:55:38.324Z,2
2017-12-16T14:56:40.742Z,1
2017-12-16T14:57:43.140Z,1
2017-12-16T14:58:45.558Z,1
2017-12-16T14:59:48.275Z,1
2017-12-16T15:00:50.704Z,1
2017-12-16T15:01:53.090Z,1
2017-12-16T15:02:55.800Z,1
2017-12-16T15:03:58.208Z,0
2017-12-16T15:05:00.640Z,0
2017-12-16T15:06:03.338Z,0
2017-12-16T15:07:06.061Z,0
2017-12-16T15:08:08.489Z,0
2017-12-16T15:09:10.896Z,0
2017-12-16T15:10:13.314Z,0
2017-12-16T15:11:16.023Z,0
2017-12-16T15:12:18.428Z,0
2017-12-16T15:13:21.142Z,0
2017-12-16T15:14:23.566Z,0
2017-12-16T15:15:25.980Z,0
2017-12-16T15:16:28.442Z,0
2017-12-16T15:17:30.804Z,0
2017-12-16T15:18:33.218Z,0
2017-12-16T15:19:35.635Z,0
2017-12-16T15:20:38.044Z,0
2017-12-16T15:21:40.443Z,0
2017-12-16T15:22:42.864Z,0
2017-12-16T15:23:45.561Z,0
2017-12-16T15:24:47.979Z,0
2017-12-16T15:25:50.401Z,0
2017-12-16T15:26:52.811Z,0
2017-12-16T15:27:55.519Z,0
2017-12-16T15:28:57.934Z,0
2017-12-16T15:30:00.361Z,0
2017-12-16T15:31:03.904Z,0
2017-12-16T15:32:06.396Z,0
2017-12-16T15:33:08.817Z,0
2017-12-16T15:34:11.233Z,0
2017-12-16T15:35:14.040Z,0
2017-12-16T15:36:16.535Z,0
2017-12-16T15:37:18.957Z,0
2017-12-16T15:38:21.364Z,0
2017-12-16T15:39:23.778Z,0
2017-12-16T15:40:26.213Z,0
2017-12-16T15:41:28.607Z,0
2017-12-16T15:42:31.023Z,0
2017-12-16T15:43:33.430Z,0
2017-12-16T15:44:35.858Z,0
2017-12-16T15:45:38.553Z,0
2017-12-16T15:46:40.968Z,0
2017-12-16T15:47:43.376Z,0
2017-12-16T15:48:45.790Z,0
2017-12-16T15:49:48.214Z,0
2017-12-16T15:50:50.625Z,0
2017-12-16T15:51:53.032Z,0
2017-12-16T15:52:55.744Z,0
2017-12-16T15:53:58.443Z,0
2017-12-16T15:55:00.846Z,0
2017-12-16T15:56:03.555Z,0
2017-12-16T15:57:05.975Z,0
2017-12-16T15:58:08.396Z,0
2017-12-16T15:59:10.802Z,0
2017-12-16T16:00:13.215Z,0
2017-12-16T16:01:15.620Z,0
2017-12-16T16:02:18.053Z,0
2017-12-16T16:03:20.736Z,0
2017-12-16T16:04:23.428Z,0
2017-12-16T16:05:25.846Z,0
2017-12-16T16:06:28.252Z,0
2017-12-16T16:07:30.671Z,0
2017-12-16T16:08:33.091Z,0
2017-12-16T16:09:35.499Z,0
2017-12-16T16:10:37.908Z,0
2017-12-16T16:11:40.326Z,0
2017-12-16T16:12:42.740Z,0
2017-12-16T16:13:45.146Z,0
2017-12-16T16:14:47.578Z,0
2017-12-16T16:15:49.966Z,0
2017-12-16T16:16:52.383Z,0
2017-12-16T16:17:54.796Z,0
2017-12-16T16:18:57.204Z,0
2017-12-16T16:19:59.925Z,0
2017-12-16T16:21:02.333Z,0
2017-12-16T16:22:04.753Z,0
2017-12-16T16:23:07.160Z,0
2017-12-16T16:24:09.573Z,0
2017-12-16T16:25:11.991Z,0
2017-12-16T16:26:14.406Z,0
2017-12-16T16:27:16.812Z,0
2017-12-16T16:28:19.512Z,0
2017-12-16T16:29:21.916Z,0
2017-12-16T16:30:24.336Z,0
2017-12-16T16:31:26.748Z,0
2017-12-16T16:32:29.158Z,0
2017-12-16T16:33:31.569Z,0
2017-12-16T16:34:33.988Z,0
2017-12-16T16:35:36.387Z,0
2017-12-16T16:36:39.095Z,0
2017-12-16T16:37:41.504Z,0
2017-12-16T16:38:43.920Z,0
2017-12-16T16:39:46.633Z,0
2017-12-16T16:40:49.035Z,0
2017-12-16T16:41:51.441Z,0
2017-12-16T16:42:53.848Z,0
2017-12-16T16:43:56.274Z,0
2017-12-16T16:44:58.692Z,0
2017-12-16T16:46:01.108Z,0
2017-12-16T16:47:03.509Z,0
2017-12-16T16:48:05.925Z,0
2017-12-16T16:49:08.344Z,0
2017-12-16T16:50:10.747Z,0
2017-12-16T16:51:13.154Z,0
2017-12-16T16:52:15.572Z,0
2017-12-16T16:53:17.976Z,0
2017-12-16T16:54:20.393Z,0
2017-12-16T16:55:22.803Z,0
2017-12-16T16:56:25.219Z,0
2017-12-16T16:57:27.631Z,0
2017-12-16T16:58:30.045Z,0
2017-12-16T16:59:32.747Z,0
2017-12-16T17:00:35.448Z,0
2017-12-16T17:01:37.863Z,0
2017-12-16T17:02:40.554Z,0
2017-12-16T17:03:42.959Z,0
2017-12-16T17:04:45.371Z,0
2017-12-16T17:05:48.067Z,0
2017-12-16T17:06:50.474Z,0
2017-12-16T17:07:52.895Z,0
2017-12-16T17:08:55.301Z,0
2017-12-16T17:09:57.707Z,0
2017-12-16T17:11:00.144Z,0
2017-12-16T17:12:02.550Z,0
2017-12-16T17:13:04.951Z,0
2017-12-16T17:14:07.373Z,0
2017-12-16T17:15:09.790Z,0
2017-12-16T17:16:12.201Z,0
2017-12-16T17:17:14.620Z,0
2017-12-16T17:18:17.310Z,0
2017-12-16T17:19:19.719Z,0
2017-12-16T17:20:22.142Z,0
2017-12-16T17:21:24.832Z,0
2017-12-16T17:22:27.526Z,0
2017-12-16T17:23:29.938Z,0
2017-12-16T17:24:32.348Z,0
2017-12-16T17:25:34.771Z,0
2017-12-16T17:26:37.169Z,0
2017-12-16T17:27:39.579Z,0
2017-12-16T17:28:44.016Z,0
2017-12-16T17:29:46.412Z,0
2017-12-16T17:30:48.826Z,0
2017-12-16T17:31:51.243Z,0
2017-12-16T17:32:53.646Z,0
2017-12-16T17:33:56.065Z,0
2017-12-16T17:34:58.475Z,0
2017-12-16T17:36:00.892Z,0
2017-12-16T17:37:03.313Z,0
2017-12-16T17:38:05.734Z,0
2017-12-16T17:39:08.143Z,0
2017-12-16T17:40:10.552Z,0
2017-12-16T17:41:12.971Z,0
2017-12-16T17:42:15.386Z,0
2017-12-16T17:43:17.806Z,0
2017-12-16T17:44:20.208Z,0
2017-12-16T17:45:22.913Z,0
2017-12-16T17:46:25.330Z,0
2017-12-16T17:47:27.758Z,0
2017-12-16T17:48:30.170Z,0
2017-12-16T17:49:32.573Z,0
2017-12-16T17:50:34.994Z,0
2017-12-16T17:51:37.388Z,0
2017-12-16T17:52:40.083Z,0
2017-12-16T17:53:42.498Z,0
2017-12-16T17:54:44.908Z,0
2017-12-16T17:55:47.324Z,0
2017-12-16T17:56:49.746Z,0
2017-12-16T17:57:52.159Z,0
2017-12-16T17:58:54.581Z,0
2017-12-16T17:59:57.273Z,0
2017-12-16T18:00:59.675Z,0
2017-12-16T18:02:02.090Z,0
2017-12-16T18:03:04.504Z,0
2017-12-16T18:04:06.924Z,0
2017-12-16T18:05:09.320Z,0
2017-12-16T18:06:12.017Z,0
2017-12-16T18:07:14.417Z,0
2017-12-16T18:08:16.835Z,0
2017-12-16T18:09:19.243Z,0
2017-12-16T18:10:21.658Z,0
2017-12-16T18:11:24.071Z,0
2017-12-16T18:12:26.484Z,0
2017-12-16T18:13:28.888Z,0
2017-12-16T18:14:31.307Z,0
2017-12-16T18:15:33.998Z,0
2017-12-16T18:16:36.412Z,0
2017-12-16T18:17:38.824Z,0
2017-12-16T18:18:41.233Z,0
2017-12-16T18:19:43.636Z,0
2017-12-16T18:20:46.047Z,0
2017-12-16T18:21:48.454Z,0
2017-12-16T18:22:50.872Z,0
2017-12-16T18:23:53.274Z,0
2017-12-16T18:24:55.698Z,0
2017-12-16T18:25:58.102Z,0
2017-12-16T18:27:00.510Z,0
2017-12-16T18:28:02.917Z,0
2017-12-16T18:29:05.323Z,0
2017-12-16T18:30:07.742Z,0
2017-12-16T18:31:10.744Z,0
2017-12-16T18:32:13.588Z,0
2017-12-16T18:33:15.999Z,0
2017-12-16T18:34:18.416Z,0
2017-12-16T18:35:20.824Z,0
2017-12-16T18:36:23.537Z,0
2017-12-16T18:37:25.939Z,0
2017-12-16T18:38:28.349Z,0
2017-12-16T18:39:30.762Z,0
2017-12-16T18:40:33.174Z,0
2017-12-16T18:41:35.577Z,0
2017-12-16T18:42:37.996Z,0
2017-12-16T18:43:40.400Z,0
2017-12-16T18:44:42.822Z,0
2017-12-16T18:45:45.225Z,0
2017-12-16T18:46:47.637Z,0
2017-12-16T18:47:50.040Z,0
2017-12-16T18:48:52.450Z,0
2017-12-16T18:49:54.861Z,0
2017-12-16T18:50:57.555Z,0
2017-12-16T18:51:59.970Z,0
2017-12-16T18:53:02.386Z,0
2017-12-16T18:54:04.795Z,0
2017-12-16T18:55:07.199Z,0
2017-12-16T18:56:09.618Z,0
2017-12-16T18:57:12.025Z,0
2017-12-16T18:58:14.437Z,0
2017-12-16T18:59:16.856Z,0
2017-12-16T19:00:19.263Z,0
2017-12-16T19:01:21.674Z,0
2017-12-16T19:02:24.379Z,0
2017-12-16T19:03:26.788Z,0
2017-12-16T19:04:29.203Z,0
2017-12-16T19:05:31.619Z,0
2017-12-16T19:06:34.025Z,0
2017-12-16T19:07:36.717Z,0
2017-12-16T19:08:39.134Z,0
2017-12-16T19:09:41.816Z,0
2017-12-16T19:10:44.281Z,0
2017-12-16T19:11:46.650Z,0
2017-12-16T19:12:49.358Z,0
2017-12-16T19:13:51.763Z,0
2017-12-16T19:14:54.461Z,0
2017-12-16T19:15:56.878Z,0
2017-12-16T19:16:59.305Z,0
2017-12-16T19:18:01.713Z,0
2017-12-16T19:19:04.132Z,0
2017-12-16T19:20:06.530Z,0
2017-12-16T19:21:08.946Z,0
2017-12-16T19:22:11.350Z,0
2017-12-16T19:23:14.042Z,0
2017-12-16T19:24:16.475Z,0
2017-12-16T19:25:19.159Z,0
2017-12-16T19:26:21.560Z,0
2017-12-16T19:27:23.974Z,0
2017-12-16T19:28:26.386Z,0
2017-12-16T19:29:28.802Z,0
2017-12-16T19:30:31.218Z,0
2017-12-16T19:31:33.613Z,0
2017-12-16T19:32:36.023Z,0
2017-12-16T19:33:38.722Z,0
2017-12-16T19:34:41.122Z,0
2017-12-16T19:35:43.544Z,0
2017-12-16T19:36:45.949Z,0
2017-12-16T19:37:48.364Z,0
2017-12-16T19:38:50.775Z,0
2017-12-16T19:39:53.183Z,0
2017-12-16T19:40:55.581Z,0
2017-12-16T19:41:57.992Z,0
2017-12-16T19:43:00.395Z,0
2017-12-16T19:44:02.812Z,0
2017-12-16T19:45:05.228Z,0
2017-12-16T19:46:07.630Z,0
2017-12-16T19:47:10.047Z,0
2017-12-16T19:48:12.468Z,0
2017-12-16T19:49:15.163Z,0
2017-12-16T19:50:17.850Z,0
2017-12-16T19:51:20.249Z,0
2017-12-16T19:52:22.699Z,0
2017-12-16T19:53:25.112Z,0
2017-12-16T19:54:27.516Z,0
2017-12-16T19:55:30.213Z,0
2017-12-16T19:56:32.625Z,0
2017-12-16T19:57:35.032Z,0
2017-12-16T19:58:37.734Z,0
2017-12-16T19:59:40.238Z,0
2017-12-16T20:00:42.644Z,0
2017-12-16T20:01:45.055Z,0
2017-12-16T20:02:47.752Z,0
2017-12-16T20:03:50.153Z,0
2017-12-16T20:04:52.569Z,0
2017-12-16T20:05:54.973Z,0
2017-12-16T20:06:57.394Z,0
2017-12-16T20:07:59.792Z,0
2017-12-16T20:09:02.195Z,0
2017-12-16T20:10:05.178Z,0
2017-12-16T20:11:07.870Z,0
2017-12-16T20:12:10.284Z,0
2017-12-16T20:13:12.702Z,0
2017-12-16T20:14:15.107Z,0
2017-12-16T20:15:17.518Z,0
2017-12-16T20:16:19.919Z,0
2017-12-16T20:17:22.335Z,0
2017-12-16T20:18:24.744Z,0
2017-12-16T20:19:27.152Z,0
2017-12-16T20:20:29.562Z,0
2017-12-16T20:21:32.259Z,0
2017-12-16T20:22:34.670Z,0
2017-12-16T20:23:37.092Z,0
2017-12-16T20:24:39.493Z,0
2017-12-16T20:25:41.902Z,0
2017-12-16T20:26:44.305Z,0
2017-12-16T20:27:47.002Z,0
2017-12-16T20:28:49.411Z,0
2017-12-16T20:29:51.821Z,0
2017-12-16T20:30:54.227Z,0
2017-12-16T20:31:56.638Z,0
2017-12-16T20:32:59.052Z,0
2017-12-16T20:34:01.456Z,0
2017-12-16T20:35:04.158Z,0
2017-12-16T20:36:06.559Z,0
2017-12-16T20:37:08.970Z,0
2017-12-16T20:38:11.692Z,0
2017-12-16T20:39:14.088Z,0
2017-12-16T20:40:16.509Z,0
2017-12-16T20:41:18.916Z,0
2017-12-16T20:42:21.326Z,0
2017-12-16T20:43:23.735Z,0
2017-12-16T20:44:26.145Z,0
2017-12-16T20:45:28.540Z,0
2017-12-16T20:46:30.960Z,0
2017-12-16T20:47:33.375Z,0
2017-12-16T20:48:35.784Z,0
2017-12-16T20:49:38.183Z,0
2017-12-16T20:50:40.595Z,0
2017-12-16T20:51:43.009Z,0
2017-12-16T20:52:45.423Z,0
2017-12-16T20:53:47.834Z,0
2017-12-16T20:54:50.241Z,0
2017-12-16T20:55:52.925Z,0
2017-12-16T20:56:55.340Z,0
2017-12-16T20:57:57.742Z,0
2017-12-16T20:59:00.145Z,0
2017-12-16T21:00:02.561Z,0
2017-12-16T21:01:05.254Z,0
2017-12-16T21:02:07.941Z,0
2017-12-16T21:03:10.361Z,0
2017-12-16T21:04:12.760Z,0
2017-12-16T21:05:15.171Z,0
2017-12-16T21:06:17.587Z,0
2017-12-16T21:07:19.995Z,0
2017-12-16T21:08:22.683Z,0
2017-12-16T21:09:25.108Z,0
2017-12-16T21:10:27.794Z,0
2017-12-16T21:11:30.220Z,0
2017-12-16T21:12:32.623Z,0
2017-12-16T21:13:35.025Z,0
2017-12-16T21:14:37.722Z,0
2017-12-16T21:15:40.130Z,0
2017-12-16T21:16:42.539Z,0
2017-12-16T21:17:44.948Z,0
2017-12-16T21:18:47.361Z,0
2017-12-16T21:19:49.764Z,0
2017-12-16T21:20:52.182Z,0
2017-12-16T21:21:54.872Z,0
2017-12-16T21:22:57.271Z,0
2017-12-16T21:23:59.970Z,0
2017-12-16T21:25:02.377Z,0
2017-12-16T21:26:04.781Z,0
2017-12-16T21:27:07.194Z,0
2017-12-16T21:28:09.610Z,0
2017-12-16T21:29:12.007Z,0
2017-12-16T21:30:14.755Z,0
2017-12-16T21:31:17.161Z,0
2017-12-16T21:32:19.570Z,0
2017-12-16T21:33:22.269Z,0
2017-12-16T21:34:24.669Z,0
2017-12-16T21:35:27.088Z,0
2017-12-16T21:36:29.498Z,0
2017-12-16T21:37:31.894Z,0
2017-12-16T21:38:34.307Z,0
2017-12-16T21:39:36.715Z,0
2017-12-16T21:40:39.127Z,0
2017-12-16T21:41:41.536Z,0
2017-12-16T21:42:43.941Z,0
2017-12-16T21:43:46.635Z,0
2017-12-16T21:44:49.056Z,0
2017-12-16T21:45:51.764Z,0
2017-12-16T21:46:54.171Z,0
2017-12-16T21:47:56.583Z,0
2017-12-16T21:48:58.998Z,0
2017-12-16T21:50:01.410Z,0
2017-12-16T21:51:03.818Z,0
2017-12-16T21:52:06.515Z,0
2017-12-16T21:53:08.924Z,0
2017-12-16T21:54:11.326Z,0
2017-12-16T21:55:13.745Z,0
2017-12-16T21:56:16.146Z,0
2017-12-16T21:57:18.568Z,0
2017-12-16T21:58:20.979Z,0
2017-12-16T21:59:23.694Z,0
2017-12-16T22:00:26.095Z,0
2017-12-16T22:01:28.509Z,0
2017-12-16T22:02:30.914Z,0
2017-12-16T22:03:33.617Z,0
2017-12-16T22:04:36.031Z,0
2017-12-16T22:05:38.444Z,0
2017-12-16T22:06:40.855Z,0
2017-12-16T22:07:43.272Z,0
2017-12-16T22:08:45.966Z,0
2017-12-16T22:09:48.396Z,0
2017-12-16T22:10:50.790Z,0
2017-12-16T22:11:53.200Z,0
2017-12-16T22:12:55.615Z,0
2017-12-16T22:13:58.029Z,0
2017-12-16T22:15:00.434Z,0
2017-12-16T22:16:02.849Z,0
2017-12-16T22:17:05.258Z,0
2017-12-16T22:18:07.945Z,0
2017-12-16T22:19:10.357Z,0
2017-12-16T22:20:12.799Z,0
2017-12-16T22:21:15.464Z,0
2017-12-16T22:22:17.871Z,0
2017-12-16T22:23:20.285Z,0
2017-12-16T22:24:22.998Z,0
2017-12-16T22:25:25.410Z,0
2017-12-16T22:26:27.828Z,0
2017-12-16T22:27:30.222Z,0
2017-12-16T22:28:32.641Z,0
2017-12-16T22:29:35.046Z,0
2017-12-16T22:30:37.458Z,0
2017-12-16T22:31:39.864Z,0
2017-12-16T22:32:42.272Z,0
2017-12-16T22:33:44.687Z,0
2017-12-16T22:34:47.421Z,0
2017-12-16T22:35:49.826Z,0
2017-12-16T22:36:52.230Z,0
2017-12-16T22:37:54.929Z,0
2017-12-16T22:38:57.319Z,0
2017-12-16T22:39:59.728Z,0
2017-12-16T22:41:02.139Z,0
2017-12-16T22:42:04.545Z,0
2017-12-16T22:43:06.961Z,0
2017-12-16T22:44:09.367Z,0
2017-12-16T22:45:11.783Z,0
2017-12-16T22:46:14.191Z,0
2017-12-16T22:47:16.606Z,0
2017-12-16T22:48:19.299Z,0
2017-12-16T22:49:21.710Z,0
2017-12-16T22:50:24.115Z,0
2017-12-16T22:51:26.540Z,0
2017-12-16T22:52:28.949Z,0
2017-12-16T22:53:31.653Z,0
2017-12-16T22:54:34.072Z,0
2017-12-16T22:55:36.764Z,0
2017-12-16T22:56:39.169Z,0
2017-12-16T22:57:41.871Z,0
2017-12-16T22:58:44.284Z,0
2017-12-16T22:59:46.688Z,0
2017-12-16T23:00:49.207Z,0
2017-12-16T23:01:51.614Z,0
2017-12-16T23:02:54.017Z,0
2017-12-16T23:03:56.432Z,0
2017-12-16T23:04:58.836Z,0
2017-12-16T23:06:01.258Z,0
2017-12-16T23:07:03.664Z,0
2017-12-16T23:08:06.072Z,0
2017-12-16T23:09:08.772Z,0
2017-12-16T23:10:11.235Z,0
2017-12-16T23:11:13.645Z,0
2017-12-16T23:12:16.061Z,0
2017-12-16T23:13:18.757Z,0
2017-12-16T23:14:21.488Z,0
2017-12-16T23:15:23.878Z,0
2017-12-16T23:16:26.294Z,0
2017-12-16T23:17:28.987Z,0
2017-12-16T23:18:31.401Z,0
2017-12-16T23:19:33.827Z,0
2017-12-16T23:20:36.229Z,0
2017-12-16T23:21:38.919Z,0
2017-12-16T23:22:41.608Z,0
2017-12-16T23:23:44.022Z,0
2017-12-16T23:24:46.428Z,0
2017-12-16T23:25:48.846Z,0
2017-12-16T23:26:51.537Z,0
2017-12-16T23:27:53.945Z,0
2017-12-16T23:28:56.363Z,0
2017-12-16T23:29:58.770Z,0
2017-12-16T23:31:01.181Z,0
2017-12-16T23:32:03.597Z,0
2017-12-16T23:33:06.002Z,0
2017-12-16T23:34:08.419Z,0
2017-12-16T23:35:10.830Z,0
2017-12-16T23:36:13.236Z,0
2017-12-16T23:37:15.644Z,0
2017-12-16T23:38:18.346Z,0
2017-12-16T23:39:20.750Z,0
2017-12-16T23:40:23.164Z,0
2017-12-16T23:41:25.561Z,0
2017-12-16T23:42:27.972Z,0
2017-12-16T23:43:30.673Z,0
2017-12-16T23:44:33.363Z,0
2017-12-16T23:45:35.780Z,0
2017-12-16T23:46:38.183Z,0
2017-12-16T23:47:40.593Z,0
2017-12-16T23:48:43.279Z,0
2017-12-16T23:49:45.685Z,0
2017-12-16T23:50:48.111Z,0
2017-12-16T23:51:50.512Z,0
2017-12-16T23:52:52.912Z,0
2017-12-16T23:53:55.327Z,0
2017-12-16T23:54:57.731Z,0
2017-12-16T23:56:00.146Z,0
2017-12-16T23:57:02.866Z,0
2017-12-16T23:58:05.266Z,0
2017-12-16T23:59:07.685Z,0
